<?xml version="1.0" encoding="UTF-8" standalone="no" ?>
<gpx xmlns="http://www.topografix.com/GPX/1/1" xmlns:xsi="http://www.w3.org/2001/XMLSchema-instance" xsi:schemaLocation="http://www.topografix.com/GPX/1/1 http://www.topografix.com/GPX/1/1/gpx.xsd" version="1.1" creator="VisuGPX - https://www.visugpx.com">
  <metadata>
    <name>VIGNY GOUSANGREZ GUIRY-14920525</name>
    <desc><![CDATA[FAIT]]></desc>
  </metadata>
  <trk>
    <name><![CDATA[VIGNY GOUSANGREZ GUIRY-14920525]]></name>
    <trkseg>
      <trkpt lat="49.07348" lon="1.92566">
        <ele>69</ele>
        <time>2023-01-08T18:19:17Z</time>
      </trkpt>
      <trkpt lat="49.07352" lon="1.92575">
        <ele>69</ele>
        <time>2023-01-08T18:19:27Z</time>
      </trkpt>
      <trkpt lat="49.07389" lon="1.92598">
        <ele>71</ele>
        <time>2023-01-08T18:20:20Z</time>
      </trkpt>
      <trkpt lat="49.07502" lon="1.92639">
        <ele>71</ele>
        <time>2023-01-08T18:22:55Z</time>
      </trkpt>
      <trkpt lat="49.07544" lon="1.92664">
        <ele>70</ele>
        <time>2023-01-08T18:23:55Z</time>
      </trkpt>
      <trkpt lat="49.07555" lon="1.92678">
        <ele>69</ele>
        <time>2023-01-08T18:24:14Z</time>
      </trkpt>
      <trkpt lat="49.0757" lon="1.92678">
        <ele>69</ele>
        <time>2023-01-08T18:24:34Z</time>
      </trkpt>
      <trkpt lat="49.07601" lon="1.927">
        <ele>69</ele>
        <time>2023-01-08T18:25:20Z</time>
      </trkpt>
      <trkpt lat="49.07611" lon="1.9269">
        <ele>69</ele>
        <time>2023-01-08T18:25:36Z</time>
      </trkpt>
      <trkpt lat="49.07627" lon="1.92693">
        <ele>68</ele>
        <time>2023-01-08T18:25:57Z</time>
      </trkpt>
      <trkpt lat="49.07654" lon="1.92725">
        <ele>68</ele>
        <time>2023-01-08T18:26:43Z</time>
      </trkpt>
      <trkpt lat="49.07705" lon="1.92742">
        <ele>69</ele>
        <time>2023-01-08T18:27:52Z</time>
      </trkpt>
      <trkpt lat="49.07711" lon="1.92752">
        <ele>70</ele>
        <time>2023-01-08T18:28:04Z</time>
      </trkpt>
      <trkpt lat="49.07751" lon="1.92778">
        <ele>72</ele>
        <time>2023-01-08T18:29:02Z</time>
      </trkpt>
      <trkpt lat="49.0778" lon="1.92808">
        <ele>73</ele>
        <time>2023-01-08T18:29:49Z</time>
      </trkpt>
      <trkpt lat="49.07797" lon="1.92802">
        <ele>73</ele>
        <time>2023-01-08T18:30:12Z</time>
      </trkpt>
      <trkpt lat="49.07817" lon="1.92804">
        <ele>74</ele>
        <time>2023-01-08T18:30:39Z</time>
      </trkpt>
      <trkpt lat="49.07913" lon="1.9284">
        <ele>79</ele>
        <time>2023-01-08T18:32:51Z</time>
      </trkpt>
      <trkpt lat="49.07959" lon="1.92867">
        <ele>84</ele>
        <time>2023-01-08T18:33:57Z</time>
      </trkpt>
      <trkpt lat="49.07991" lon="1.92879">
        <ele>86</ele>
        <time>2023-01-08T18:34:41Z</time>
      </trkpt>
      <trkpt lat="49.08007" lon="1.9288">
        <ele>88</ele>
        <time>2023-01-08T18:35:02Z</time>
      </trkpt>
      <trkpt lat="49.08017" lon="1.92876">
        <ele>89</ele>
        <time>2023-01-08T18:35:16Z</time>
      </trkpt>
      <trkpt lat="49.0805" lon="1.92888">
        <ele>95</ele>
        <time>2023-01-08T18:36:01Z</time>
      </trkpt>
      <trkpt lat="49.08096" lon="1.92886">
        <ele>102</ele>
        <time>2023-01-08T18:37:03Z</time>
      </trkpt>
      <trkpt lat="49.08114" lon="1.92894">
        <ele>105</ele>
        <time>2023-01-08T18:37:28Z</time>
      </trkpt>
      <trkpt lat="49.08135" lon="1.9292">
        <ele>108</ele>
        <time>2023-01-08T18:38:04Z</time>
      </trkpt>
      <trkpt lat="49.08146" lon="1.92993">
        <ele>110</ele>
        <time>2023-01-08T18:39:09Z</time>
      </trkpt>
      <trkpt lat="49.08131" lon="1.93032">
        <ele>110</ele>
        <time>2023-01-08T18:39:49Z</time>
      </trkpt>
      <trkpt lat="49.0813" lon="1.93072">
        <ele>112</ele>
        <time>2023-01-08T18:40:24Z</time>
      </trkpt>
      <trkpt lat="49.08119" lon="1.93104">
        <ele>113</ele>
        <time>2023-01-08T18:40:55Z</time>
      </trkpt>
      <trkpt lat="49.08117" lon="1.93123">
        <ele>114</ele>
        <time>2023-01-08T18:41:12Z</time>
      </trkpt>
      <trkpt lat="49.08214" lon="1.93103">
        <ele>120</ele>
        <time>2023-01-08T18:43:23Z</time>
      </trkpt>
      <trkpt lat="49.08224" lon="1.93106">
        <ele>121</ele>
        <time>2023-01-08T18:43:36Z</time>
      </trkpt>
      <trkpt lat="49.08235" lon="1.93121">
        <ele>121</ele>
        <time>2023-01-08T18:43:56Z</time>
      </trkpt>
      <trkpt lat="49.08281" lon="1.93159">
        <ele>124</ele>
        <time>2023-01-08T18:45:06Z</time>
      </trkpt>
      <trkpt lat="49.08274" lon="1.93182">
        <ele>124</ele>
        <time>2023-01-08T18:45:28Z</time>
      </trkpt>
      <trkpt lat="49.08293" lon="1.93203">
        <ele>125</ele>
        <time>2023-01-08T18:45:59Z</time>
      </trkpt>
      <trkpt lat="49.08299" lon="1.93223">
        <ele>126</ele>
        <time>2023-01-08T18:46:18Z</time>
      </trkpt>
      <trkpt lat="49.08317" lon="1.9324">
        <ele>127</ele>
        <time>2023-01-08T18:46:47Z</time>
      </trkpt>
      <trkpt lat="49.08317" lon="1.93254">
        <ele>127</ele>
        <time>2023-01-08T18:46:59Z</time>
      </trkpt>
      <trkpt lat="49.08273" lon="1.93301">
        <ele>126</ele>
        <time>2023-01-08T18:48:11Z</time>
      </trkpt>
      <trkpt lat="49.08215" lon="1.93394">
        <ele>126</ele>
        <time>2023-01-08T18:50:03Z</time>
      </trkpt>
      <trkpt lat="49.08176" lon="1.9348">
        <ele>127</ele>
        <time>2023-01-08T18:51:34Z</time>
      </trkpt>
      <trkpt lat="49.08165" lon="1.93531">
        <ele>127</ele>
        <time>2023-01-08T18:52:21Z</time>
      </trkpt>
      <trkpt lat="49.08172" lon="1.93642">
        <ele>128</ele>
        <time>2023-01-08T18:53:59Z</time>
      </trkpt>
      <trkpt lat="49.0817" lon="1.9367">
        <ele>129</ele>
        <time>2023-01-08T18:54:23Z</time>
      </trkpt>
      <trkpt lat="49.08181" lon="1.93755">
        <ele>126</ele>
        <time>2023-01-08T18:55:39Z</time>
      </trkpt>
      <trkpt lat="49.08193" lon="1.9394">
        <ele>124</ele>
        <time>2023-01-08T18:58:22Z</time>
      </trkpt>
      <trkpt lat="49.08203" lon="1.94005">
        <ele>123</ele>
        <time>2023-01-08T18:59:20Z</time>
      </trkpt>
      <trkpt lat="49.08206" lon="1.94154">
        <ele>120</ele>
        <time>2023-01-08T19:01:30Z</time>
      </trkpt>
      <trkpt lat="49.08229" lon="1.94372">
        <ele>115</ele>
        <time>2023-01-08T19:04:43Z</time>
      </trkpt>
      <trkpt lat="49.0825" lon="1.94497">
        <ele>111</ele>
        <time>2023-01-08T19:06:36Z</time>
      </trkpt>
      <trkpt lat="49.08253" lon="1.94587">
        <ele>110</ele>
        <time>2023-01-08T19:07:55Z</time>
      </trkpt>
      <trkpt lat="49.08264" lon="1.9466">
        <ele>108</ele>
        <time>2023-01-08T19:09:00Z</time>
      </trkpt>
      <trkpt lat="49.08258" lon="1.94828">
        <ele>105</ele>
        <time>2023-01-08T19:11:27Z</time>
      </trkpt>
      <trkpt lat="49.08262" lon="1.94936">
        <ele>104</ele>
        <time>2023-01-08T19:13:02Z</time>
      </trkpt>
      <trkpt lat="49.08274" lon="1.94986">
        <ele>104</ele>
        <time>2023-01-08T19:13:48Z</time>
      </trkpt>
      <trkpt lat="49.08295" lon="1.95027">
        <ele>105</ele>
        <time>2023-01-08T19:14:34Z</time>
      </trkpt>
      <trkpt lat="49.08309" lon="1.95067">
        <ele>105</ele>
        <time>2023-01-08T19:15:13Z</time>
      </trkpt>
      <trkpt lat="49.08348" lon="1.95127">
        <ele>104</ele>
        <time>2023-01-08T19:16:27Z</time>
      </trkpt>
      <trkpt lat="49.08377" lon="1.95199">
        <ele>104</ele>
        <time>2023-01-08T19:17:41Z</time>
      </trkpt>
      <trkpt lat="49.08397" lon="1.9523">
        <ele>103</ele>
        <time>2023-01-08T19:18:19Z</time>
      </trkpt>
      <trkpt lat="49.08479" lon="1.95396">
        <ele>103</ele>
        <time>2023-01-08T19:21:21Z</time>
      </trkpt>
      <trkpt lat="49.08499" lon="1.95424">
        <ele>103</ele>
        <time>2023-01-08T19:21:57Z</time>
      </trkpt>
      <trkpt lat="49.08518" lon="1.9546">
        <ele>102</ele>
        <time>2023-01-08T19:22:38Z</time>
      </trkpt>
      <trkpt lat="49.08612" lon="1.95653">
        <ele>101</ele>
        <time>2023-01-08T19:26:08Z</time>
      </trkpt>
      <trkpt lat="49.08623" lon="1.95702">
        <ele>101</ele>
        <time>2023-01-08T19:26:53Z</time>
      </trkpt>
      <trkpt lat="49.08641" lon="1.9584">
        <ele>103</ele>
        <time>2023-01-08T19:28:56Z</time>
      </trkpt>
      <trkpt lat="49.08659" lon="1.95936">
        <ele>105</ele>
        <time>2023-01-08T19:30:23Z</time>
      </trkpt>
      <trkpt lat="49.08687" lon="1.96169">
        <ele>104</ele>
        <time>2023-01-08T19:33:50Z</time>
      </trkpt>
      <trkpt lat="49.08747" lon="1.96523">
        <ele>92</ele>
        <time>2023-01-08T19:39:10Z</time>
      </trkpt>
      <trkpt lat="49.08756" lon="1.96641">
        <ele>88</ele>
        <time>2023-01-08T19:40:54Z</time>
      </trkpt>
      <trkpt lat="49.08754" lon="1.96702">
        <ele>85</ele>
        <time>2023-01-08T19:41:47Z</time>
      </trkpt>
      <trkpt lat="49.08759" lon="1.96713">
        <ele>84</ele>
        <time>2023-01-08T19:41:59Z</time>
      </trkpt>
      <trkpt lat="49.08756" lon="1.96716">
        <ele>84</ele>
        <time>2023-01-08T19:42:04Z</time>
      </trkpt>
      <trkpt lat="49.08756" lon="1.9671">
        <ele>84</ele>
        <time>2023-01-08T19:42:09Z</time>
      </trkpt>
      <trkpt lat="49.08761" lon="1.96709">
        <ele>84</ele>
        <time>2023-01-08T19:42:16Z</time>
      </trkpt>
      <trkpt lat="49.08821" lon="1.96721">
        <ele>83</ele>
        <time>2023-01-08T19:43:36Z</time>
      </trkpt>
      <trkpt lat="49.08885" lon="1.96725">
        <ele>84</ele>
        <time>2023-01-08T19:45:02Z</time>
      </trkpt>
      <trkpt lat="49.08945" lon="1.96717">
        <ele>83</ele>
        <time>2023-01-08T19:46:22Z</time>
      </trkpt>
      <trkpt lat="49.09005" lon="1.9672">
        <ele>82</ele>
        <time>2023-01-08T19:47:42Z</time>
      </trkpt>
      <trkpt lat="49.09046" lon="1.96713">
        <ele>81</ele>
        <time>2023-01-08T19:48:37Z</time>
      </trkpt>
      <trkpt lat="49.09084" lon="1.96714">
        <ele>81</ele>
        <time>2023-01-08T19:49:28Z</time>
      </trkpt>
      <trkpt lat="49.09132" lon="1.96703">
        <ele>79</ele>
        <time>2023-01-08T19:50:33Z</time>
      </trkpt>
      <trkpt lat="49.09174" lon="1.96716">
        <ele>76</ele>
        <time>2023-01-08T19:51:30Z</time>
      </trkpt>
      <trkpt lat="49.09183" lon="1.96722">
        <ele>75</ele>
        <time>2023-01-08T19:51:43Z</time>
      </trkpt>
      <trkpt lat="49.09207" lon="1.96757">
        <ele>72</ele>
        <time>2023-01-08T19:52:27Z</time>
      </trkpt>
      <trkpt lat="49.09225" lon="1.96768">
        <ele>69</ele>
        <time>2023-01-08T19:52:53Z</time>
      </trkpt>
      <trkpt lat="49.0924" lon="1.96772">
        <ele>68</ele>
        <time>2023-01-08T19:53:14Z</time>
      </trkpt>
      <trkpt lat="49.09252" lon="1.96765">
        <ele>68</ele>
        <time>2023-01-08T19:53:31Z</time>
      </trkpt>
      <trkpt lat="49.0928" lon="1.96729">
        <ele>64</ele>
        <time>2023-01-08T19:54:20Z</time>
      </trkpt>
      <trkpt lat="49.09305" lon="1.96649">
        <ele>61</ele>
        <time>2023-01-08T19:55:37Z</time>
      </trkpt>
      <trkpt lat="49.09332" lon="1.96643">
        <ele>57</ele>
        <time>2023-01-08T19:56:14Z</time>
      </trkpt>
      <trkpt lat="49.09343" lon="1.96645">
        <ele>56</ele>
        <time>2023-01-08T19:56:28Z</time>
      </trkpt>
      <trkpt lat="49.09384" lon="1.96634">
        <ele>53</ele>
        <time>2023-01-08T19:57:24Z</time>
      </trkpt>
      <trkpt lat="49.09451" lon="1.96596">
        <ele>51</ele>
        <time>2023-01-08T19:58:59Z</time>
      </trkpt>
      <trkpt lat="49.09494" lon="1.96589">
        <ele>52</ele>
        <time>2023-01-08T19:59:57Z</time>
      </trkpt>
      <trkpt lat="49.09532" lon="1.96591">
        <ele>53</ele>
        <time>2023-01-08T20:00:48Z</time>
      </trkpt>
      <trkpt lat="49.0955" lon="1.96599">
        <ele>54</ele>
        <time>2023-01-08T20:01:13Z</time>
      </trkpt>
      <trkpt lat="49.09621" lon="1.96652">
        <ele>57</ele>
        <time>2023-01-08T20:02:58Z</time>
      </trkpt>
      <trkpt lat="49.09632" lon="1.96653">
        <ele>57</ele>
        <time>2023-01-08T20:03:13Z</time>
      </trkpt>
      <trkpt lat="49.09667" lon="1.96676">
        <ele>58</ele>
        <time>2023-01-08T20:04:04Z</time>
      </trkpt>
      <trkpt lat="49.09711" lon="1.9669">
        <ele>63</ele>
        <time>2023-01-08T20:05:04Z</time>
      </trkpt>
      <trkpt lat="49.09747" lon="1.9669">
        <ele>67</ele>
        <time>2023-01-08T20:05:52Z</time>
      </trkpt>
      <trkpt lat="49.0979" lon="1.96665">
        <ele>70</ele>
        <time>2023-01-08T20:06:53Z</time>
      </trkpt>
      <trkpt lat="49.09799" lon="1.96666">
        <ele>71</ele>
        <time>2023-01-08T20:07:05Z</time>
      </trkpt>
      <trkpt lat="49.09846" lon="1.96712">
        <ele>72</ele>
        <time>2023-01-08T20:08:20Z</time>
      </trkpt>
      <trkpt lat="49.09878" lon="1.96677">
        <ele>73</ele>
        <time>2023-01-08T20:09:12Z</time>
      </trkpt>
      <trkpt lat="49.09903" lon="1.96639">
        <ele>75</ele>
        <time>2023-01-08T20:09:59Z</time>
      </trkpt>
      <trkpt lat="49.09938" lon="1.96606">
        <ele>77</ele>
        <time>2023-01-08T20:10:54Z</time>
      </trkpt>
      <trkpt lat="49.09955" lon="1.96578">
        <ele>79</ele>
        <time>2023-01-08T20:11:27Z</time>
      </trkpt>
      <trkpt lat="49.09965" lon="1.96575">
        <ele>78</ele>
        <time>2023-01-08T20:11:41Z</time>
      </trkpt>
      <trkpt lat="49.09964" lon="1.96567">
        <ele>79</ele>
        <time>2023-01-08T20:11:48Z</time>
      </trkpt>
      <trkpt lat="49.09952" lon="1.96565">
        <ele>79</ele>
        <time>2023-01-08T20:12:04Z</time>
      </trkpt>
      <trkpt lat="49.09953" lon="1.96569">
        <ele>79</ele>
        <time>2023-01-08T20:12:08Z</time>
      </trkpt>
      <trkpt lat="49.09986" lon="1.96568">
        <ele>78</ele>
        <time>2023-01-08T20:12:52Z</time>
      </trkpt>
      <trkpt lat="49.10008" lon="1.96572">
        <ele>77</ele>
        <time>2023-01-08T20:13:22Z</time>
      </trkpt>
      <trkpt lat="49.10045" lon="1.96568">
        <ele>74</ele>
        <time>2023-01-08T20:14:11Z</time>
      </trkpt>
      <trkpt lat="49.10078" lon="1.96557">
        <ele>72</ele>
        <time>2023-01-08T20:14:56Z</time>
      </trkpt>
      <trkpt lat="49.10113" lon="1.96536">
        <ele>70</ele>
        <time>2023-01-08T20:15:46Z</time>
      </trkpt>
      <trkpt lat="49.10172" lon="1.96473">
        <ele>71</ele>
        <time>2023-01-08T20:17:22Z</time>
      </trkpt>
      <trkpt lat="49.10183" lon="1.9647">
        <ele>70</ele>
        <time>2023-01-08T20:17:37Z</time>
      </trkpt>
      <trkpt lat="49.10195" lon="1.96476">
        <ele>69</ele>
        <time>2023-01-08T20:17:54Z</time>
      </trkpt>
      <trkpt lat="49.10191" lon="1.96464">
        <ele>70</ele>
        <time>2023-01-08T20:18:06Z</time>
      </trkpt>
      <trkpt lat="49.1016" lon="1.9643">
        <ele>75</ele>
        <time>2023-01-08T20:18:57Z</time>
      </trkpt>
      <trkpt lat="49.10147" lon="1.96403">
        <ele>78</ele>
        <time>2023-01-08T20:19:26Z</time>
      </trkpt>
      <trkpt lat="49.10137" lon="1.96337">
        <ele>83</ele>
        <time>2023-01-08T20:20:25Z</time>
      </trkpt>
      <trkpt lat="49.10098" lon="1.96201">
        <ele>85</ele>
        <time>2023-01-08T20:22:35Z</time>
      </trkpt>
      <trkpt lat="49.10099" lon="1.96183">
        <ele>84</ele>
        <time>2023-01-08T20:22:51Z</time>
      </trkpt>
      <trkpt lat="49.10162" lon="1.96034">
        <ele>87</ele>
        <time>2023-01-08T20:25:26Z</time>
      </trkpt>
      <trkpt lat="49.10174" lon="1.96017">
        <ele>87</ele>
        <time>2023-01-08T20:25:48Z</time>
      </trkpt>
      <trkpt lat="49.10224" lon="1.95972">
        <ele>89</ele>
        <time>2023-01-08T20:27:05Z</time>
      </trkpt>
      <trkpt lat="49.1027" lon="1.9592">
        <ele>90</ele>
        <time>2023-01-08T20:28:22Z</time>
      </trkpt>
      <trkpt lat="49.10316" lon="1.95822">
        <ele>90</ele>
        <time>2023-01-08T20:30:07Z</time>
      </trkpt>
      <trkpt lat="49.10347" lon="1.95777">
        <ele>89</ele>
        <time>2023-01-08T20:31:04Z</time>
      </trkpt>
      <trkpt lat="49.1043" lon="1.95622">
        <ele>87</ele>
        <time>2023-01-08T20:33:59Z</time>
      </trkpt>
      <trkpt lat="49.10454" lon="1.95584">
        <ele>88</ele>
        <time>2023-01-08T20:34:45Z</time>
      </trkpt>
      <trkpt lat="49.10464" lon="1.95522">
        <ele>90</ele>
        <time>2023-01-08T20:35:41Z</time>
      </trkpt>
      <trkpt lat="49.10441" lon="1.95027">
        <ele>96</ele>
        <time>2023-01-08T20:42:54Z</time>
      </trkpt>
      <trkpt lat="49.10431" lon="1.94948">
        <ele>96</ele>
        <time>2023-01-08T20:44:05Z</time>
      </trkpt>
      <trkpt lat="49.10434" lon="1.94858">
        <ele>95</ele>
        <time>2023-01-08T20:45:23Z</time>
      </trkpt>
      <trkpt lat="49.10428" lon="1.94834">
        <ele>95</ele>
        <time>2023-01-08T20:45:46Z</time>
      </trkpt>
      <trkpt lat="49.1041" lon="1.94794">
        <ele>95</ele>
        <time>2023-01-08T20:46:28Z</time>
      </trkpt>
      <trkpt lat="49.10362" lon="1.94594">
        <ele>97</ele>
        <time>2023-01-08T20:49:34Z</time>
      </trkpt>
      <trkpt lat="49.10334" lon="1.94518">
        <ele>97</ele>
        <time>2023-01-08T20:50:51Z</time>
      </trkpt>
      <trkpt lat="49.10286" lon="1.94409">
        <ele>99</ele>
        <time>2023-01-08T20:52:45Z</time>
      </trkpt>
      <trkpt lat="49.10267" lon="1.94377">
        <ele>99</ele>
        <time>2023-01-08T20:53:23Z</time>
      </trkpt>
      <trkpt lat="49.1025" lon="1.94336">
        <ele>99</ele>
        <time>2023-01-08T20:54:05Z</time>
      </trkpt>
      <trkpt lat="49.10185" lon="1.94208">
        <ele>102</ele>
        <time>2023-01-08T20:56:27Z</time>
      </trkpt>
      <trkpt lat="49.10169" lon="1.94167">
        <ele>102</ele>
        <time>2023-01-08T20:57:09Z</time>
      </trkpt>
      <trkpt lat="49.10137" lon="1.94112">
        <ele>102</ele>
        <time>2023-01-08T20:58:13Z</time>
      </trkpt>
      <trkpt lat="49.1005" lon="1.93995">
        <ele>103</ele>
        <time>2023-01-08T21:00:48Z</time>
      </trkpt>
      <trkpt lat="49.09971" lon="1.93917">
        <ele>105</ele>
        <time>2023-01-08T21:02:53Z</time>
      </trkpt>
      <trkpt lat="49.09838" lon="1.93834">
        <ele>107</ele>
        <time>2023-01-08T21:06:05Z</time>
      </trkpt>
      <trkpt lat="49.0979" lon="1.93789">
        <ele>107</ele>
        <time>2023-01-08T21:07:20Z</time>
      </trkpt>
      <trkpt lat="49.09784" lon="1.9378">
        <ele>107</ele>
        <time>2023-01-08T21:07:31Z</time>
      </trkpt>
      <trkpt lat="49.09788" lon="1.93744">
        <ele>107</ele>
        <time>2023-01-08T21:08:03Z</time>
      </trkpt>
      <trkpt lat="49.0982" lon="1.93652">
        <ele>107</ele>
        <time>2023-01-08T21:09:34Z</time>
      </trkpt>
      <trkpt lat="49.09887" lon="1.93511">
        <ele>108</ele>
        <time>2023-01-08T21:12:06Z</time>
      </trkpt>
      <trkpt lat="49.09926" lon="1.93403">
        <ele>109</ele>
        <time>2023-01-08T21:13:54Z</time>
      </trkpt>
      <trkpt lat="49.09997" lon="1.93241">
        <ele>111</ele>
        <time>2023-01-08T21:16:45Z</time>
      </trkpt>
      <trkpt lat="49.10026" lon="1.9316">
        <ele>113</ele>
        <time>2023-01-08T21:18:05Z</time>
      </trkpt>
      <trkpt lat="49.10064" lon="1.93081">
        <ele>113</ele>
        <time>2023-01-08T21:19:31Z</time>
      </trkpt>
      <trkpt lat="49.10102" lon="1.92986">
        <ele>112</ele>
        <time>2023-01-08T21:21:08Z</time>
      </trkpt>
      <trkpt lat="49.10122" lon="1.92948">
        <ele>111</ele>
        <time>2023-01-08T21:21:51Z</time>
      </trkpt>
      <trkpt lat="49.10135" lon="1.92904">
        <ele>110</ele>
        <time>2023-01-08T21:22:33Z</time>
      </trkpt>
      <trkpt lat="49.10196" lon="1.92761">
        <ele>107</ele>
        <time>2023-01-08T21:25:02Z</time>
      </trkpt>
      <trkpt lat="49.10276" lon="1.92591">
        <ele>102</ele>
        <time>2023-01-08T21:28:05Z</time>
      </trkpt>
      <trkpt lat="49.10282" lon="1.92565">
        <ele>102</ele>
        <time>2023-01-08T21:28:29Z</time>
      </trkpt>
      <trkpt lat="49.10323" lon="1.92454">
        <ele>103</ele>
        <time>2023-01-08T21:30:20Z</time>
      </trkpt>
      <trkpt lat="49.10342" lon="1.92423">
        <ele>104</ele>
        <time>2023-01-08T21:30:57Z</time>
      </trkpt>
      <trkpt lat="49.10368" lon="1.92365">
        <ele>103</ele>
        <time>2023-01-08T21:31:59Z</time>
      </trkpt>
      <trkpt lat="49.10394" lon="1.92295">
        <ele>104</ele>
        <time>2023-01-08T21:33:09Z</time>
      </trkpt>
      <trkpt lat="49.10419" lon="1.92242">
        <ele>104</ele>
        <time>2023-01-08T21:34:06Z</time>
      </trkpt>
      <trkpt lat="49.10435" lon="1.92194">
        <ele>104</ele>
        <time>2023-01-08T21:34:53Z</time>
      </trkpt>
      <trkpt lat="49.10462" lon="1.92139">
        <ele>105</ele>
        <time>2023-01-08T21:35:53Z</time>
      </trkpt>
      <trkpt lat="49.10571" lon="1.91878">
        <ele>107</ele>
        <time>2023-01-08T21:40:24Z</time>
      </trkpt>
      <trkpt lat="49.10616" lon="1.91781">
        <ele>106</ele>
        <time>2023-01-08T21:42:08Z</time>
      </trkpt>
      <trkpt lat="49.10754" lon="1.91442">
        <ele>105</ele>
        <time>2023-01-08T21:47:56Z</time>
      </trkpt>
      <trkpt lat="49.10777" lon="1.914">
        <ele>105</ele>
        <time>2023-01-08T21:48:44Z</time>
      </trkpt>
      <trkpt lat="49.10818" lon="1.91286">
        <ele>105</ele>
        <time>2023-01-08T21:50:38Z</time>
      </trkpt>
      <trkpt lat="49.10874" lon="1.91152">
        <ele>105</ele>
        <time>2023-01-08T21:52:57Z</time>
      </trkpt>
      <trkpt lat="49.10883" lon="1.91147">
        <ele>105</ele>
        <time>2023-01-08T21:53:10Z</time>
      </trkpt>
      <trkpt lat="49.10894" lon="1.91129">
        <ele>105</ele>
        <time>2023-01-08T21:53:31Z</time>
      </trkpt>
      <trkpt lat="49.10905" lon="1.91091">
        <ele>104</ele>
        <time>2023-01-08T21:54:07Z</time>
      </trkpt>
      <trkpt lat="49.10923" lon="1.91057">
        <ele>104</ele>
        <time>2023-01-08T21:54:46Z</time>
      </trkpt>
      <trkpt lat="49.10936" lon="1.91013">
        <ele>105</ele>
        <time>2023-01-08T21:55:28Z</time>
      </trkpt>
      <trkpt lat="49.10978" lon="1.90929">
        <ele>108</ele>
        <time>2023-01-08T21:57:00Z</time>
      </trkpt>
      <trkpt lat="49.10994" lon="1.90918">
        <ele>110</ele>
        <time>2023-01-08T21:57:23Z</time>
      </trkpt>
      <trkpt lat="49.11" lon="1.9092">
        <ele>110</ele>
        <time>2023-01-08T21:57:32Z</time>
      </trkpt>
      <trkpt lat="49.10992" lon="1.90921">
        <ele>109</ele>
        <time>2023-01-08T21:57:42Z</time>
      </trkpt>
      <trkpt lat="49.10998" lon="1.90927">
        <ele>110</ele>
        <time>2023-01-08T21:57:52Z</time>
      </trkpt>
      <trkpt lat="49.10999" lon="1.90918">
        <ele>110</ele>
        <time>2023-01-08T21:58:00Z</time>
      </trkpt>
      <trkpt lat="49.11003" lon="1.90924">
        <ele>110</ele>
        <time>2023-01-08T21:58:07Z</time>
      </trkpt>
      <trkpt lat="49.11" lon="1.90909">
        <ele>110</ele>
        <time>2023-01-08T21:58:21Z</time>
      </trkpt>
      <trkpt lat="49.10986" lon="1.90922">
        <ele>109</ele>
        <time>2023-01-08T21:58:43Z</time>
      </trkpt>
      <trkpt lat="49.10987" lon="1.90934">
        <ele>109</ele>
        <time>2023-01-08T21:58:54Z</time>
      </trkpt>
      <trkpt lat="49.10994" lon="1.90918">
        <ele>110</ele>
        <time>2023-01-08T21:59:10Z</time>
      </trkpt>
      <trkpt lat="49.10996" lon="1.90922">
        <ele>110</ele>
        <time>2023-01-08T21:59:15Z</time>
      </trkpt>
      <trkpt lat="49.11" lon="1.90914">
        <ele>110</ele>
        <time>2023-01-08T21:59:24Z</time>
      </trkpt>
      <trkpt lat="49.11004" lon="1.90914">
        <ele>110</ele>
        <time>2023-01-08T21:59:29Z</time>
      </trkpt>
      <trkpt lat="49.10998" lon="1.90919">
        <ele>110</ele>
        <time>2023-01-08T21:59:38Z</time>
      </trkpt>
      <trkpt lat="49.10993" lon="1.90942">
        <ele>109</ele>
        <time>2023-01-08T21:59:59Z</time>
      </trkpt>
      <trkpt lat="49.10989" lon="1.90941">
        <ele>109</ele>
        <time>2023-01-08T22:00:05Z</time>
      </trkpt>
      <trkpt lat="49.10997" lon="1.90927">
        <ele>110</ele>
        <time>2023-01-08T22:00:21Z</time>
      </trkpt>
      <trkpt lat="49.10997" lon="1.90919">
        <ele>110</ele>
        <time>2023-01-08T22:00:28Z</time>
      </trkpt>
      <trkpt lat="49.11001" lon="1.90914">
        <ele>110</ele>
        <time>2023-01-08T22:00:35Z</time>
      </trkpt>
      <trkpt lat="49.11004" lon="1.9092">
        <ele>110</ele>
        <time>2023-01-08T22:00:41Z</time>
      </trkpt>
      <trkpt lat="49.10997" lon="1.90917">
        <ele>110</ele>
        <time>2023-01-08T22:00:51Z</time>
      </trkpt>
      <trkpt lat="49.11008" lon="1.90912">
        <ele>111</ele>
        <time>2023-01-08T22:01:06Z</time>
      </trkpt>
      <trkpt lat="49.11009" lon="1.90902">
        <ele>111</ele>
        <time>2023-01-08T22:01:15Z</time>
      </trkpt>
      <trkpt lat="49.11" lon="1.90919">
        <ele>110</ele>
        <time>2023-01-08T22:01:34Z</time>
      </trkpt>
      <trkpt lat="49.10991" lon="1.90925">
        <ele>109</ele>
        <time>2023-01-08T22:01:47Z</time>
      </trkpt>
      <trkpt lat="49.10997" lon="1.90918">
        <ele>110</ele>
        <time>2023-01-08T22:01:57Z</time>
      </trkpt>
      <trkpt lat="49.10992" lon="1.90929">
        <ele>109</ele>
        <time>2023-01-08T22:02:09Z</time>
      </trkpt>
      <trkpt lat="49.10992" lon="1.90924">
        <ele>109</ele>
        <time>2023-01-08T22:02:14Z</time>
      </trkpt>
      <trkpt lat="49.11007" lon="1.90948">
        <ele>110</ele>
        <time>2023-01-08T22:02:42Z</time>
      </trkpt>
      <trkpt lat="49.11023" lon="1.90964">
        <ele>111</ele>
        <time>2023-01-08T22:03:08Z</time>
      </trkpt>
      <trkpt lat="49.1104" lon="1.90972">
        <ele>112</ele>
        <time>2023-01-08T22:03:32Z</time>
      </trkpt>
      <trkpt lat="49.11051" lon="1.90971">
        <ele>113</ele>
        <time>2023-01-08T22:03:46Z</time>
      </trkpt>
      <trkpt lat="49.11071" lon="1.90989">
        <ele>114</ele>
        <time>2023-01-08T22:04:17Z</time>
      </trkpt>
      <trkpt lat="49.11101" lon="1.91004">
        <ele>114</ele>
        <time>2023-01-08T22:05:00Z</time>
      </trkpt>
      <trkpt lat="49.1111" lon="1.91005">
        <ele>113</ele>
        <time>2023-01-08T22:05:12Z</time>
      </trkpt>
      <trkpt lat="49.11136" lon="1.90995">
        <ele>114</ele>
        <time>2023-01-08T22:05:47Z</time>
      </trkpt>
      <trkpt lat="49.11146" lon="1.90998">
        <ele>113</ele>
        <time>2023-01-08T22:06:01Z</time>
      </trkpt>
      <trkpt lat="49.11161" lon="1.9101">
        <ele>113</ele>
        <time>2023-01-08T22:06:24Z</time>
      </trkpt>
      <trkpt lat="49.11177" lon="1.91031">
        <ele>112</ele>
        <time>2023-01-08T22:06:52Z</time>
      </trkpt>
      <trkpt lat="49.11199" lon="1.91041">
        <ele>112</ele>
        <time>2023-01-08T22:07:22Z</time>
      </trkpt>
      <trkpt lat="49.11271" lon="1.91028">
        <ele>112</ele>
        <time>2023-01-08T22:08:59Z</time>
      </trkpt>
      <trkpt lat="49.11291" lon="1.91012">
        <ele>112</ele>
        <time>2023-01-08T22:09:29Z</time>
      </trkpt>
      <trkpt lat="49.11284" lon="1.90995">
        <ele>112</ele>
        <time>2023-01-08T22:09:47Z</time>
      </trkpt>
      <trkpt lat="49.11273" lon="1.90942">
        <ele>113</ele>
        <time>2023-01-08T22:10:35Z</time>
      </trkpt>
      <trkpt lat="49.1127" lon="1.9092">
        <ele>113</ele>
        <time>2023-01-08T22:10:55Z</time>
      </trkpt>
      <trkpt lat="49.11273" lon="1.90896">
        <ele>113</ele>
        <time>2023-01-08T22:11:16Z</time>
      </trkpt>
      <trkpt lat="49.11285" lon="1.90873">
        <ele>113</ele>
        <time>2023-01-08T22:11:42Z</time>
      </trkpt>
      <trkpt lat="49.1129" lon="1.90852">
        <ele>113</ele>
        <time>2023-01-08T22:12:02Z</time>
      </trkpt>
      <trkpt lat="49.11339" lon="1.90781">
        <ele>112</ele>
        <time>2023-01-08T22:13:32Z</time>
      </trkpt>
      <trkpt lat="49.11349" lon="1.90773">
        <ele>112</ele>
        <time>2023-01-08T22:13:47Z</time>
      </trkpt>
      <trkpt lat="49.11362" lon="1.90771">
        <ele>111</ele>
        <time>2023-01-08T22:14:04Z</time>
      </trkpt>
      <trkpt lat="49.11323" lon="1.90716">
        <ele>112</ele>
        <time>2023-01-08T22:15:15Z</time>
      </trkpt>
      <trkpt lat="49.11282" lon="1.90684">
        <ele>113</ele>
        <time>2023-01-08T22:16:16Z</time>
      </trkpt>
      <trkpt lat="49.11253" lon="1.90652">
        <ele>113</ele>
        <time>2023-01-08T22:17:04Z</time>
      </trkpt>
      <trkpt lat="49.11218" lon="1.90633">
        <ele>112</ele>
        <time>2023-01-08T22:17:54Z</time>
      </trkpt>
      <trkpt lat="49.11216" lon="1.90593">
        <ele>112</ele>
        <time>2023-01-08T22:18:29Z</time>
      </trkpt>
      <trkpt lat="49.11192" lon="1.90487">
        <ele>111</ele>
        <time>2023-01-08T22:20:07Z</time>
      </trkpt>
      <trkpt lat="49.11187" lon="1.90448">
        <ele>111</ele>
        <time>2023-01-08T22:20:41Z</time>
      </trkpt>
      <trkpt lat="49.11197" lon="1.90413">
        <ele>111</ele>
        <time>2023-01-08T22:21:15Z</time>
      </trkpt>
      <trkpt lat="49.11204" lon="1.90368">
        <ele>112</ele>
        <time>2023-01-08T22:21:55Z</time>
      </trkpt>
      <trkpt lat="49.11235" lon="1.9032">
        <ele>113</ele>
        <time>2023-01-08T22:22:54Z</time>
      </trkpt>
      <trkpt lat="49.11249" lon="1.90287">
        <ele>113</ele>
        <time>2023-01-08T22:23:28Z</time>
      </trkpt>
      <trkpt lat="49.11256" lon="1.90254">
        <ele>113</ele>
        <time>2023-01-08T22:23:59Z</time>
      </trkpt>
      <trkpt lat="49.11273" lon="1.9023">
        <ele>112</ele>
        <time>2023-01-08T22:24:30Z</time>
      </trkpt>
      <trkpt lat="49.11285" lon="1.90175">
        <ele>112</ele>
        <time>2023-01-08T22:25:20Z</time>
      </trkpt>
      <trkpt lat="49.11314" lon="1.90132">
        <ele>111</ele>
        <time>2023-01-08T22:26:14Z</time>
      </trkpt>
      <trkpt lat="49.11336" lon="1.9008">
        <ele>110</ele>
        <time>2023-01-08T22:27:08Z</time>
      </trkpt>
      <trkpt lat="49.1135" lon="1.90058">
        <ele>110</ele>
        <time>2023-01-08T22:27:35Z</time>
      </trkpt>
      <trkpt lat="49.11367" lon="1.90004">
        <ele>110</ele>
        <time>2023-01-08T22:28:27Z</time>
      </trkpt>
      <trkpt lat="49.11432" lon="1.89884">
        <ele>110</ele>
        <time>2023-01-08T22:30:44Z</time>
      </trkpt>
      <trkpt lat="49.11469" lon="1.89769">
        <ele>112</ele>
        <time>2023-01-08T22:32:35Z</time>
      </trkpt>
      <trkpt lat="49.11506" lon="1.89683">
        <ele>111</ele>
        <time>2023-01-08T22:34:05Z</time>
      </trkpt>
      <trkpt lat="49.11537" lon="1.89589">
        <ele>111</ele>
        <time>2023-01-08T22:35:37Z</time>
      </trkpt>
      <trkpt lat="49.11581" lon="1.89498">
        <ele>112</ele>
        <time>2023-01-08T22:37:16Z</time>
      </trkpt>
      <trkpt lat="49.11653" lon="1.8932">
        <ele>113</ele>
        <time>2023-01-08T22:40:19Z</time>
      </trkpt>
      <trkpt lat="49.11687" lon="1.89258">
        <ele>112</ele>
        <time>2023-01-08T22:41:30Z</time>
      </trkpt>
      <trkpt lat="49.11697" lon="1.89226">
        <ele>112</ele>
        <time>2023-01-08T22:42:00Z</time>
      </trkpt>
      <trkpt lat="49.1174" lon="1.89136">
        <ele>112</ele>
        <time>2023-01-08T22:43:38Z</time>
      </trkpt>
      <trkpt lat="49.11765" lon="1.89061">
        <ele>112</ele>
        <time>2023-01-08T22:44:51Z</time>
      </trkpt>
      <trkpt lat="49.11804" lon="1.8897">
        <ele>112</ele>
        <time>2023-01-08T22:46:26Z</time>
      </trkpt>
      <trkpt lat="49.11819" lon="1.88908">
        <ele>112</ele>
        <time>2023-01-08T22:47:24Z</time>
      </trkpt>
      <trkpt lat="49.1184" lon="1.88852">
        <ele>113</ele>
        <time>2023-01-08T22:48:20Z</time>
      </trkpt>
      <trkpt lat="49.11885" lon="1.88756">
        <ele>113</ele>
        <time>2023-01-08T22:50:04Z</time>
      </trkpt>
      <trkpt lat="49.11926" lon="1.88685">
        <ele>113</ele>
        <time>2023-01-08T22:51:26Z</time>
      </trkpt>
      <trkpt lat="49.11962" lon="1.88584">
        <ele>114</ele>
        <time>2023-01-08T22:53:07Z</time>
      </trkpt>
      <trkpt lat="49.11973" lon="1.88568">
        <ele>114</ele>
        <time>2023-01-08T22:53:27Z</time>
      </trkpt>
      <trkpt lat="49.11977" lon="1.8855">
        <ele>115</ele>
        <time>2023-01-08T22:53:44Z</time>
      </trkpt>
      <trkpt lat="49.12" lon="1.88499">
        <ele>116</ele>
        <time>2023-01-08T22:54:38Z</time>
      </trkpt>
      <trkpt lat="49.12012" lon="1.88458">
        <ele>116</ele>
        <time>2023-01-08T22:55:17Z</time>
      </trkpt>
      <trkpt lat="49.12051" lon="1.88378">
        <ele>116</ele>
        <time>2023-01-08T22:56:44Z</time>
      </trkpt>
      <trkpt lat="49.1208" lon="1.88286">
        <ele>115</ele>
        <time>2023-01-08T22:58:13Z</time>
      </trkpt>
      <trkpt lat="49.12099" lon="1.88254">
        <ele>114</ele>
        <time>2023-01-08T22:58:51Z</time>
      </trkpt>
      <trkpt lat="49.12125" lon="1.88194">
        <ele>112</ele>
        <time>2023-01-08T22:59:54Z</time>
      </trkpt>
      <trkpt lat="49.12147" lon="1.8813">
        <ele>111</ele>
        <time>2023-01-08T23:00:57Z</time>
      </trkpt>
      <trkpt lat="49.12215" lon="1.87994">
        <ele>111</ele>
        <time>2023-01-08T23:03:26Z</time>
      </trkpt>
      <trkpt lat="49.12218" lon="1.87979">
        <ele>112</ele>
        <time>2023-01-08T23:03:40Z</time>
      </trkpt>
      <trkpt lat="49.12231" lon="1.87965">
        <ele>112</ele>
        <time>2023-01-08T23:04:01Z</time>
      </trkpt>
      <trkpt lat="49.12248" lon="1.87936">
        <ele>113</ele>
        <time>2023-01-08T23:04:35Z</time>
      </trkpt>
      <trkpt lat="49.12265" lon="1.87893">
        <ele>114</ele>
        <time>2023-01-08T23:05:19Z</time>
      </trkpt>
      <trkpt lat="49.12284" lon="1.87801">
        <ele>114</ele>
        <time>2023-01-08T23:06:43Z</time>
      </trkpt>
      <trkpt lat="49.12299" lon="1.87768">
        <ele>114</ele>
        <time>2023-01-08T23:07:19Z</time>
      </trkpt>
      <trkpt lat="49.12319" lon="1.87707">
        <ele>114</ele>
        <time>2023-01-08T23:08:18Z</time>
      </trkpt>
      <trkpt lat="49.1235" lon="1.87646">
        <ele>113</ele>
        <time>2023-01-08T23:09:26Z</time>
      </trkpt>
      <trkpt lat="49.12383" lon="1.87548">
        <ele>113</ele>
        <time>2023-01-08T23:11:02Z</time>
      </trkpt>
      <trkpt lat="49.12417" lon="1.87484">
        <ele>114</ele>
        <time>2023-01-08T23:12:14Z</time>
      </trkpt>
      <trkpt lat="49.12497" lon="1.87305">
        <ele>117</ele>
        <time>2023-01-08T23:15:23Z</time>
      </trkpt>
      <trkpt lat="49.12527" lon="1.87219">
        <ele>118</ele>
        <time>2023-01-08T23:16:48Z</time>
      </trkpt>
      <trkpt lat="49.12566" lon="1.87126">
        <ele>119</ele>
        <time>2023-01-08T23:18:25Z</time>
      </trkpt>
      <trkpt lat="49.12596" lon="1.87067">
        <ele>119</ele>
        <time>2023-01-08T23:19:30Z</time>
      </trkpt>
      <trkpt lat="49.12664" lon="1.86891">
        <ele>124</ele>
        <time>2023-01-08T23:22:28Z</time>
      </trkpt>
      <trkpt lat="49.12706" lon="1.868">
        <ele>124</ele>
        <time>2023-01-08T23:24:06Z</time>
      </trkpt>
      <trkpt lat="49.12708" lon="1.86792">
        <ele>124</ele>
        <time>2023-01-08T23:24:13Z</time>
      </trkpt>
      <trkpt lat="49.12701" lon="1.86785">
        <ele>124</ele>
        <time>2023-01-08T23:24:24Z</time>
      </trkpt>
      <trkpt lat="49.12706" lon="1.8679">
        <ele>124</ele>
        <time>2023-01-08T23:24:32Z</time>
      </trkpt>
      <trkpt lat="49.12708" lon="1.86788">
        <ele>124</ele>
        <time>2023-01-08T23:24:35Z</time>
      </trkpt>
      <trkpt lat="49.12711" lon="1.86774">
        <ele>123</ele>
        <time>2023-01-08T23:24:48Z</time>
      </trkpt>
      <trkpt lat="49.12713" lon="1.86503">
        <ele>123</ele>
        <time>2023-01-08T23:28:45Z</time>
      </trkpt>
      <trkpt lat="49.12718" lon="1.86457">
        <ele>123</ele>
        <time>2023-01-08T23:29:26Z</time>
      </trkpt>
      <trkpt lat="49.12718" lon="1.86355">
        <ele>124</ele>
        <time>2023-01-08T23:30:55Z</time>
      </trkpt>
      <trkpt lat="49.12689" lon="1.8633">
        <ele>124</ele>
        <time>2023-01-08T23:31:39Z</time>
      </trkpt>
      <trkpt lat="49.12673" lon="1.86307">
        <ele>125</ele>
        <time>2023-01-08T23:32:08Z</time>
      </trkpt>
      <trkpt lat="49.12613" lon="1.86242">
        <ele>128</ele>
        <time>2023-01-08T23:33:47Z</time>
      </trkpt>
      <trkpt lat="49.12578" lon="1.8621">
        <ele>127</ele>
        <time>2023-01-08T23:34:41Z</time>
      </trkpt>
      <trkpt lat="49.1252" lon="1.8614">
        <ele>127</ele>
        <time>2023-01-08T23:36:20Z</time>
      </trkpt>
      <trkpt lat="49.12397" lon="1.86019">
        <ele>132</ele>
        <time>2023-01-08T23:39:35Z</time>
      </trkpt>
      <trkpt lat="49.12263" lon="1.8595">
        <ele>135</ele>
        <time>2023-01-08T23:42:44Z</time>
      </trkpt>
      <trkpt lat="49.12247" lon="1.85935">
        <ele>136</ele>
        <time>2023-01-08T23:43:09Z</time>
      </trkpt>
      <trkpt lat="49.12211" lon="1.85921">
        <ele>137</ele>
        <time>2023-01-08T23:43:58Z</time>
      </trkpt>
      <trkpt lat="49.12156" lon="1.85885">
        <ele>139</ele>
        <time>2023-01-08T23:45:18Z</time>
      </trkpt>
      <trkpt lat="49.12126" lon="1.85871">
        <ele>139</ele>
        <time>2023-01-08T23:46:00Z</time>
      </trkpt>
      <trkpt lat="49.1211" lon="1.85857">
        <ele>139</ele>
        <time>2023-01-08T23:46:25Z</time>
      </trkpt>
      <trkpt lat="49.12301" lon="1.85517">
        <ele>142</ele>
        <time>2023-01-08T23:52:56Z</time>
      </trkpt>
      <trkpt lat="49.12348" lon="1.85447">
        <ele>142</ele>
        <time>2023-01-08T23:54:23Z</time>
      </trkpt>
      <trkpt lat="49.12357" lon="1.8542">
        <ele>141</ele>
        <time>2023-01-08T23:54:50Z</time>
      </trkpt>
      <trkpt lat="49.12405" lon="1.85353">
        <ele>141</ele>
        <time>2023-01-08T23:56:17Z</time>
      </trkpt>
      <trkpt lat="49.12463" lon="1.85284">
        <ele>141</ele>
        <time>2023-01-08T23:57:55Z</time>
      </trkpt>
      <trkpt lat="49.12476" lon="1.85262">
        <ele>141</ele>
        <time>2023-01-08T23:58:21Z</time>
      </trkpt>
      <trkpt lat="49.12529" lon="1.85204">
        <ele>142</ele>
        <time>2023-01-08T23:59:48Z</time>
      </trkpt>
      <trkpt lat="49.12545" lon="1.85196">
        <ele>142</ele>
        <time>2023-01-09T00:00:10Z</time>
      </trkpt>
      <trkpt lat="49.12581" lon="1.85152">
        <ele>143</ele>
        <time>2023-01-09T00:01:12Z</time>
      </trkpt>
      <trkpt lat="49.12613" lon="1.85132">
        <ele>142</ele>
        <time>2023-01-09T00:01:58Z</time>
      </trkpt>
      <trkpt lat="49.12632" lon="1.85109">
        <ele>142</ele>
        <time>2023-01-09T00:02:30Z</time>
      </trkpt>
      <trkpt lat="49.12667" lon="1.85085">
        <ele>142</ele>
        <time>2023-01-09T00:03:21Z</time>
      </trkpt>
      <trkpt lat="49.12703" lon="1.85052">
        <ele>141</ele>
        <time>2023-01-09T00:04:17Z</time>
      </trkpt>
      <trkpt lat="49.12772" lon="1.84971">
        <ele>141</ele>
        <time>2023-01-09T00:06:13Z</time>
      </trkpt>
      <trkpt lat="49.12794" lon="1.84953">
        <ele>142</ele>
        <time>2023-01-09T00:06:47Z</time>
      </trkpt>
      <trkpt lat="49.12848" lon="1.84896">
        <ele>142</ele>
        <time>2023-01-09T00:08:14Z</time>
      </trkpt>
      <trkpt lat="49.12867" lon="1.84902">
        <ele>142</ele>
        <time>2023-01-09T00:08:40Z</time>
      </trkpt>
      <trkpt lat="49.12878" lon="1.84894">
        <ele>142</ele>
        <time>2023-01-09T00:08:56Z</time>
      </trkpt>
      <trkpt lat="49.12879" lon="1.84887">
        <ele>142</ele>
        <time>2023-01-09T00:09:03Z</time>
      </trkpt>
      <trkpt lat="49.12864" lon="1.84889">
        <ele>142</ele>
        <time>2023-01-09T00:09:23Z</time>
      </trkpt>
      <trkpt lat="49.12831" lon="1.84869">
        <ele>143</ele>
        <time>2023-01-09T00:10:10Z</time>
      </trkpt>
      <trkpt lat="49.12839" lon="1.84848">
        <ele>143</ele>
        <time>2023-01-09T00:10:31Z</time>
      </trkpt>
      <trkpt lat="49.12833" lon="1.8481">
        <ele>143</ele>
        <time>2023-01-09T00:11:06Z</time>
      </trkpt>
      <trkpt lat="49.12843" lon="1.84787">
        <ele>142</ele>
        <time>2023-01-09T00:11:30Z</time>
      </trkpt>
      <trkpt lat="49.12869" lon="1.84752">
        <ele>142</ele>
        <time>2023-01-09T00:12:16Z</time>
      </trkpt>
      <trkpt lat="49.12875" lon="1.84729">
        <ele>142</ele>
        <time>2023-01-09T00:12:38Z</time>
      </trkpt>
      <trkpt lat="49.1286" lon="1.84658">
        <ele>145</ele>
        <time>2023-01-09T00:13:43Z</time>
      </trkpt>
      <trkpt lat="49.12821" lon="1.84566">
        <ele>150</ele>
        <time>2023-01-09T00:15:18Z</time>
      </trkpt>
      <trkpt lat="49.12798" lon="1.8458">
        <ele>150</ele>
        <time>2023-01-09T00:15:51Z</time>
      </trkpt>
      <trkpt lat="49.12773" lon="1.84607">
        <ele>150</ele>
        <time>2023-01-09T00:16:32Z</time>
      </trkpt>
      <trkpt lat="49.1277" lon="1.84618">
        <ele>149</ele>
        <time>2023-01-09T00:16:43Z</time>
      </trkpt>
      <trkpt lat="49.12776" lon="1.84617">
        <ele>149</ele>
        <time>2023-01-09T00:16:51Z</time>
      </trkpt>
      <trkpt lat="49.12777" lon="1.8462">
        <ele>149</ele>
        <time>2023-01-09T00:16:54Z</time>
      </trkpt>
      <trkpt lat="49.12773" lon="1.84632">
        <ele>149</ele>
        <time>2023-01-09T00:17:05Z</time>
      </trkpt>
      <trkpt lat="49.12707" lon="1.84719">
        <ele>148</ele>
        <time>2023-01-09T00:19:02Z</time>
      </trkpt>
      <trkpt lat="49.12678" lon="1.84794">
        <ele>147</ele>
        <time>2023-01-09T00:20:18Z</time>
      </trkpt>
      <trkpt lat="49.12628" lon="1.84894">
        <ele>146</ele>
        <time>2023-01-09T00:22:08Z</time>
      </trkpt>
      <trkpt lat="49.12595" lon="1.84938">
        <ele>145</ele>
        <time>2023-01-09T00:23:06Z</time>
      </trkpt>
      <trkpt lat="49.12529" lon="1.85069">
        <ele>144</ele>
        <time>2023-01-09T00:25:31Z</time>
      </trkpt>
      <trkpt lat="49.12473" lon="1.85152">
        <ele>144</ele>
        <time>2023-01-09T00:27:15Z</time>
      </trkpt>
      <trkpt lat="49.12431" lon="1.8523">
        <ele>143</ele>
        <time>2023-01-09T00:28:43Z</time>
      </trkpt>
      <trkpt lat="49.12389" lon="1.8529">
        <ele>143</ele>
        <time>2023-01-09T00:30:00Z</time>
      </trkpt>
      <trkpt lat="49.12358" lon="1.85263">
        <ele>143</ele>
        <time>2023-01-09T00:30:47Z</time>
      </trkpt>
      <trkpt lat="49.12312" lon="1.85208">
        <ele>143</ele>
        <time>2023-01-09T00:32:05Z</time>
      </trkpt>
      <trkpt lat="49.12221" lon="1.85121">
        <ele>144</ele>
        <time>2023-01-09T00:34:28Z</time>
      </trkpt>
      <trkpt lat="49.12136" lon="1.85017">
        <ele>141</ele>
        <time>2023-01-09T00:36:54Z</time>
      </trkpt>
      <trkpt lat="49.12101" lon="1.84985">
        <ele>140</ele>
        <time>2023-01-09T00:37:48Z</time>
      </trkpt>
      <trkpt lat="49.11978" lon="1.84853">
        <ele>136</ele>
        <time>2023-01-09T00:41:09Z</time>
      </trkpt>
      <trkpt lat="49.11974" lon="1.84852">
        <ele>136</ele>
        <time>2023-01-09T00:41:14Z</time>
      </trkpt>
      <trkpt lat="49.11956" lon="1.8489">
        <ele>135</ele>
        <time>2023-01-09T00:41:55Z</time>
      </trkpt>
      <trkpt lat="49.11936" lon="1.84913">
        <ele>135</ele>
        <time>2023-01-09T00:42:28Z</time>
      </trkpt>
      <trkpt lat="49.11887" lon="1.8494">
        <ele>134</ele>
        <time>2023-01-09T00:43:38Z</time>
      </trkpt>
      <trkpt lat="49.1188" lon="1.84943">
        <ele>134</ele>
        <time>2023-01-09T00:43:48Z</time>
      </trkpt>
      <trkpt lat="49.11829" lon="1.84941">
        <ele>133</ele>
        <time>2023-01-09T00:44:56Z</time>
      </trkpt>
      <trkpt lat="49.11804" lon="1.84946">
        <ele>133</ele>
        <time>2023-01-09T00:45:29Z</time>
      </trkpt>
      <trkpt lat="49.11714" lon="1.84981">
        <ele>137</ele>
        <time>2023-01-09T00:47:33Z</time>
      </trkpt>
      <trkpt lat="49.1168" lon="1.84981">
        <ele>138</ele>
        <time>2023-01-09T00:48:19Z</time>
      </trkpt>
      <trkpt lat="49.11654" lon="1.84971">
        <ele>138</ele>
        <time>2023-01-09T00:48:55Z</time>
      </trkpt>
      <trkpt lat="49.11631" lon="1.84972">
        <ele>138</ele>
        <time>2023-01-09T00:49:25Z</time>
      </trkpt>
      <trkpt lat="49.11611" lon="1.84963">
        <ele>138</ele>
        <time>2023-01-09T00:49:53Z</time>
      </trkpt>
      <trkpt lat="49.11586" lon="1.84962">
        <ele>138</ele>
        <time>2023-01-09T00:50:26Z</time>
      </trkpt>
      <trkpt lat="49.11539" lon="1.84945">
        <ele>132</ele>
        <time>2023-01-09T00:51:31Z</time>
      </trkpt>
      <trkpt lat="49.11525" lon="1.84948">
        <ele>130</ele>
        <time>2023-01-09T00:51:50Z</time>
      </trkpt>
      <trkpt lat="49.11512" lon="1.84959">
        <ele>129</ele>
        <time>2023-01-09T00:52:10Z</time>
      </trkpt>
      <trkpt lat="49.11493" lon="1.84995">
        <ele>129</ele>
        <time>2023-01-09T00:52:50Z</time>
      </trkpt>
      <trkpt lat="49.11478" lon="1.85028">
        <ele>129</ele>
        <time>2023-01-09T00:53:25Z</time>
      </trkpt>
      <trkpt lat="49.11471" lon="1.85063">
        <ele>130</ele>
        <time>2023-01-09T00:53:57Z</time>
      </trkpt>
      <trkpt lat="49.11444" lon="1.85109">
        <ele>131</ele>
        <time>2023-01-09T00:54:51Z</time>
      </trkpt>
      <trkpt lat="49.11424" lon="1.8511">
        <ele>131</ele>
        <time>2023-01-09T00:55:18Z</time>
      </trkpt>
      <trkpt lat="49.11385" lon="1.85124">
        <ele>131</ele>
        <time>2023-01-09T00:56:11Z</time>
      </trkpt>
      <trkpt lat="49.11372" lon="1.85123">
        <ele>130</ele>
        <time>2023-01-09T00:56:29Z</time>
      </trkpt>
      <trkpt lat="49.1135" lon="1.85118">
        <ele>129</ele>
        <time>2023-01-09T00:56:58Z</time>
      </trkpt>
      <trkpt lat="49.11316" lon="1.85098">
        <ele>125</ele>
        <time>2023-01-09T00:57:47Z</time>
      </trkpt>
      <trkpt lat="49.11296" lon="1.85092">
        <ele>124</ele>
        <time>2023-01-09T00:58:14Z</time>
      </trkpt>
      <trkpt lat="49.11286" lon="1.85093">
        <ele>125</ele>
        <time>2023-01-09T00:58:27Z</time>
      </trkpt>
      <trkpt lat="49.11241" lon="1.85079">
        <ele>122</ele>
        <time>2023-01-09T00:59:29Z</time>
      </trkpt>
      <trkpt lat="49.11235" lon="1.85081">
        <ele>122</ele>
        <time>2023-01-09T00:59:37Z</time>
      </trkpt>
      <trkpt lat="49.11193" lon="1.85074">
        <ele>119</ele>
        <time>2023-01-09T01:00:33Z</time>
      </trkpt>
      <trkpt lat="49.11175" lon="1.85078">
        <ele>119</ele>
        <time>2023-01-09T01:00:58Z</time>
      </trkpt>
      <trkpt lat="49.11144" lon="1.85097">
        <ele>120</ele>
        <time>2023-01-09T01:01:42Z</time>
      </trkpt>
      <trkpt lat="49.11134" lon="1.85097">
        <ele>119</ele>
        <time>2023-01-09T01:01:55Z</time>
      </trkpt>
      <trkpt lat="49.11103" lon="1.8511">
        <ele>117</ele>
        <time>2023-01-09T01:02:38Z</time>
      </trkpt>
      <trkpt lat="49.11083" lon="1.85114">
        <ele>115</ele>
        <time>2023-01-09T01:03:05Z</time>
      </trkpt>
      <trkpt lat="49.1106" lon="1.85134">
        <ele>114</ele>
        <time>2023-01-09T01:03:41Z</time>
      </trkpt>
      <trkpt lat="49.11045" lon="1.8514">
        <ele>112</ele>
        <time>2023-01-09T01:04:01Z</time>
      </trkpt>
      <trkpt lat="49.11022" lon="1.85139">
        <ele>109</ele>
        <time>2023-01-09T01:04:32Z</time>
      </trkpt>
      <trkpt lat="49.10981" lon="1.85155">
        <ele>104</ele>
        <time>2023-01-09T01:05:28Z</time>
      </trkpt>
      <trkpt lat="49.10965" lon="1.85146">
        <ele>102</ele>
        <time>2023-01-09T01:05:51Z</time>
      </trkpt>
      <trkpt lat="49.10921" lon="1.85101">
        <ele>97</ele>
        <time>2023-01-09T01:07:02Z</time>
      </trkpt>
      <trkpt lat="49.10919" lon="1.85091">
        <ele>96</ele>
        <time>2023-01-09T01:07:11Z</time>
      </trkpt>
      <trkpt lat="49.10898" lon="1.85053">
        <ele>96</ele>
        <time>2023-01-09T01:07:54Z</time>
      </trkpt>
      <trkpt lat="49.10884" lon="1.85008">
        <ele>95</ele>
        <time>2023-01-09T01:08:38Z</time>
      </trkpt>
      <trkpt lat="49.10867" lon="1.84985">
        <ele>96</ele>
        <time>2023-01-09T01:09:08Z</time>
      </trkpt>
      <trkpt lat="49.10851" lon="1.84973">
        <ele>96</ele>
        <time>2023-01-09T01:09:32Z</time>
      </trkpt>
      <trkpt lat="49.10837" lon="1.84972">
        <ele>96</ele>
        <time>2023-01-09T01:09:51Z</time>
      </trkpt>
      <trkpt lat="49.10821" lon="1.84964">
        <ele>96</ele>
        <time>2023-01-09T01:10:13Z</time>
      </trkpt>
      <trkpt lat="49.10794" lon="1.84942">
        <ele>96</ele>
        <time>2023-01-09T01:10:54Z</time>
      </trkpt>
      <trkpt lat="49.10782" lon="1.84923">
        <ele>96</ele>
        <time>2023-01-09T01:11:17Z</time>
      </trkpt>
      <trkpt lat="49.10738" lon="1.84882">
        <ele>96</ele>
        <time>2023-01-09T01:12:26Z</time>
      </trkpt>
      <trkpt lat="49.10726" lon="1.84866">
        <ele>97</ele>
        <time>2023-01-09T01:12:47Z</time>
      </trkpt>
      <trkpt lat="49.10715" lon="1.84859">
        <ele>97</ele>
        <time>2023-01-09T01:13:03Z</time>
      </trkpt>
      <trkpt lat="49.10704" lon="1.84833">
        <ele>97</ele>
        <time>2023-01-09T01:13:30Z</time>
      </trkpt>
      <trkpt lat="49.10709" lon="1.84831">
        <ele>97</ele>
        <time>2023-01-09T01:13:37Z</time>
      </trkpt>
      <trkpt lat="49.10707" lon="1.84828">
        <ele>97</ele>
        <time>2023-01-09T01:13:41Z</time>
      </trkpt>
      <trkpt lat="49.10713" lon="1.8483">
        <ele>97</ele>
        <time>2023-01-09T01:13:49Z</time>
      </trkpt>
      <trkpt lat="49.1072" lon="1.84841">
        <ele>97</ele>
        <time>2023-01-09T01:14:02Z</time>
      </trkpt>
      <trkpt lat="49.10674" lon="1.84804">
        <ele>97</ele>
        <time>2023-01-09T01:15:12Z</time>
      </trkpt>
      <trkpt lat="49.10659" lon="1.84801">
        <ele>98</ele>
        <time>2023-01-09T01:15:32Z</time>
      </trkpt>
      <trkpt lat="49.10647" lon="1.84792">
        <ele>98</ele>
        <time>2023-01-09T01:15:50Z</time>
      </trkpt>
      <trkpt lat="49.10634" lon="1.8479">
        <ele>98</ele>
        <time>2023-01-09T01:16:07Z</time>
      </trkpt>
      <trkpt lat="49.10611" lon="1.84796">
        <ele>99</ele>
        <time>2023-01-09T01:16:38Z</time>
      </trkpt>
      <trkpt lat="49.10604" lon="1.84792">
        <ele>99</ele>
        <time>2023-01-09T01:16:48Z</time>
      </trkpt>
      <trkpt lat="49.10596" lon="1.84802">
        <ele>99</ele>
        <time>2023-01-09T01:17:02Z</time>
      </trkpt>
      <trkpt lat="49.10566" lon="1.84808">
        <ele>101</ele>
        <time>2023-01-09T01:17:42Z</time>
      </trkpt>
      <trkpt lat="49.10529" lon="1.84824">
        <ele>104</ele>
        <time>2023-01-09T01:18:34Z</time>
      </trkpt>
      <trkpt lat="49.10482" lon="1.84859">
        <ele>109</ele>
        <time>2023-01-09T01:19:44Z</time>
      </trkpt>
      <trkpt lat="49.10456" lon="1.84884">
        <ele>112</ele>
        <time>2023-01-09T01:20:25Z</time>
      </trkpt>
      <trkpt lat="49.10438" lon="1.84912">
        <ele>111</ele>
        <time>2023-01-09T01:20:59Z</time>
      </trkpt>
      <trkpt lat="49.10396" lon="1.84962">
        <ele>109</ele>
        <time>2023-01-09T01:22:10Z</time>
      </trkpt>
      <trkpt lat="49.10364" lon="1.84988">
        <ele>109</ele>
        <time>2023-01-09T01:22:58Z</time>
      </trkpt>
      <trkpt lat="49.1035" lon="1.85009">
        <ele>108</ele>
        <time>2023-01-09T01:23:24Z</time>
      </trkpt>
      <trkpt lat="49.10319" lon="1.8504">
        <ele>109</ele>
        <time>2023-01-09T01:24:14Z</time>
      </trkpt>
      <trkpt lat="49.10243" lon="1.85107">
        <ele>109</ele>
        <time>2023-01-09T01:26:11Z</time>
      </trkpt>
      <trkpt lat="49.10186" lon="1.85175">
        <ele>105</ele>
        <time>2023-01-09T01:27:47Z</time>
      </trkpt>
      <trkpt lat="49.10161" lon="1.85194">
        <ele>107</ele>
        <time>2023-01-09T01:28:25Z</time>
      </trkpt>
      <trkpt lat="49.10103" lon="1.85262">
        <ele>112</ele>
        <time>2023-01-09T01:30:02Z</time>
      </trkpt>
      <trkpt lat="49.10081" lon="1.85304">
        <ele>113</ele>
        <time>2023-01-09T01:30:49Z</time>
      </trkpt>
      <trkpt lat="49.10063" lon="1.85357">
        <ele>115</ele>
        <time>2023-01-09T01:31:41Z</time>
      </trkpt>
      <trkpt lat="49.10061" lon="1.85367">
        <ele>116</ele>
        <time>2023-01-09T01:31:51Z</time>
      </trkpt>
      <trkpt lat="49.10065" lon="1.85362">
        <ele>115</ele>
        <time>2023-01-09T01:31:58Z</time>
      </trkpt>
      <trkpt lat="49.10059" lon="1.85372">
        <ele>116</ele>
        <time>2023-01-09T01:32:09Z</time>
      </trkpt>
      <trkpt lat="49.10047" lon="1.85423">
        <ele>118</ele>
        <time>2023-01-09T01:32:57Z</time>
      </trkpt>
      <trkpt lat="49.10029" lon="1.85461">
        <ele>120</ele>
        <time>2023-01-09T01:33:38Z</time>
      </trkpt>
      <trkpt lat="49.10029" lon="1.85482">
        <ele>118</ele>
        <time>2023-01-09T01:33:56Z</time>
      </trkpt>
      <trkpt lat="49.10019" lon="1.85516">
        <ele>119</ele>
        <time>2023-01-09T01:34:29Z</time>
      </trkpt>
      <trkpt lat="49.10022" lon="1.85555">
        <ele>116</ele>
        <time>2023-01-09T01:35:03Z</time>
      </trkpt>
      <trkpt lat="49.09998" lon="1.85635">
        <ele>116</ele>
        <time>2023-01-09T01:36:20Z</time>
      </trkpt>
      <trkpt lat="49.09985" lon="1.85651">
        <ele>117</ele>
        <time>2023-01-09T01:36:42Z</time>
      </trkpt>
      <trkpt lat="49.09977" lon="1.85669">
        <ele>116</ele>
        <time>2023-01-09T01:37:01Z</time>
      </trkpt>
      <trkpt lat="49.09945" lon="1.85704">
        <ele>118</ele>
        <time>2023-01-09T01:37:54Z</time>
      </trkpt>
      <trkpt lat="49.09867" lon="1.85763">
        <ele>121</ele>
        <time>2023-01-09T01:39:50Z</time>
      </trkpt>
      <trkpt lat="49.09833" lon="1.85783">
        <ele>123</ele>
        <time>2023-01-09T01:40:38Z</time>
      </trkpt>
      <trkpt lat="49.09809" lon="1.85792">
        <ele>123</ele>
        <time>2023-01-09T01:41:11Z</time>
      </trkpt>
      <trkpt lat="49.09791" lon="1.8579">
        <ele>125</ele>
        <time>2023-01-09T01:41:35Z</time>
      </trkpt>
      <trkpt lat="49.09763" lon="1.85798">
        <ele>126</ele>
        <time>2023-01-09T01:42:13Z</time>
      </trkpt>
      <trkpt lat="49.09698" lon="1.85789">
        <ele>128</ele>
        <time>2023-01-09T01:43:41Z</time>
      </trkpt>
      <trkpt lat="49.09672" lon="1.8574">
        <ele>130</ele>
        <time>2023-01-09T01:44:36Z</time>
      </trkpt>
      <trkpt lat="49.09656" lon="1.85732">
        <ele>130</ele>
        <time>2023-01-09T01:44:58Z</time>
      </trkpt>
      <trkpt lat="49.09649" lon="1.85734">
        <ele>129</ele>
        <time>2023-01-09T01:45:08Z</time>
      </trkpt>
      <trkpt lat="49.09636" lon="1.85756">
        <ele>129</ele>
        <time>2023-01-09T01:45:34Z</time>
      </trkpt>
      <trkpt lat="49.09615" lon="1.85779">
        <ele>128</ele>
        <time>2023-01-09T01:46:08Z</time>
      </trkpt>
      <trkpt lat="49.09584" lon="1.85834">
        <ele>127</ele>
        <time>2023-01-09T01:47:11Z</time>
      </trkpt>
      <trkpt lat="49.09554" lon="1.85903">
        <ele>128</ele>
        <time>2023-01-09T01:48:24Z</time>
      </trkpt>
      <trkpt lat="49.09517" lon="1.85952">
        <ele>130</ele>
        <time>2023-01-09T01:49:29Z</time>
      </trkpt>
      <trkpt lat="49.09499" lon="1.85989">
        <ele>131</ele>
        <time>2023-01-09T01:50:09Z</time>
      </trkpt>
      <trkpt lat="49.09488" lon="1.86">
        <ele>131</ele>
        <time>2023-01-09T01:50:27Z</time>
      </trkpt>
      <trkpt lat="49.09483" lon="1.86013">
        <ele>132</ele>
        <time>2023-01-09T01:50:40Z</time>
      </trkpt>
      <trkpt lat="49.09483" lon="1.86035">
        <ele>132</ele>
        <time>2023-01-09T01:50:59Z</time>
      </trkpt>
      <trkpt lat="49.09471" lon="1.86054">
        <ele>133</ele>
        <time>2023-01-09T01:51:22Z</time>
      </trkpt>
      <trkpt lat="49.09455" lon="1.86065">
        <ele>134</ele>
        <time>2023-01-09T01:51:46Z</time>
      </trkpt>
      <trkpt lat="49.09443" lon="1.86082">
        <ele>135</ele>
        <time>2023-01-09T01:52:08Z</time>
      </trkpt>
      <trkpt lat="49.09427" lon="1.86117">
        <ele>135</ele>
        <time>2023-01-09T01:52:45Z</time>
      </trkpt>
      <trkpt lat="49.09426" lon="1.86138">
        <ele>135</ele>
        <time>2023-01-09T01:53:03Z</time>
      </trkpt>
      <trkpt lat="49.09411" lon="1.86151">
        <ele>136</ele>
        <time>2023-01-09T01:53:26Z</time>
      </trkpt>
      <trkpt lat="49.09389" lon="1.86184">
        <ele>137</ele>
        <time>2023-01-09T01:54:08Z</time>
      </trkpt>
      <trkpt lat="49.0937" lon="1.86223">
        <ele>137</ele>
        <time>2023-01-09T01:54:50Z</time>
      </trkpt>
      <trkpt lat="49.09355" lon="1.86267">
        <ele>137</ele>
        <time>2023-01-09T01:55:33Z</time>
      </trkpt>
      <trkpt lat="49.09316" lon="1.86319">
        <ele>138</ele>
        <time>2023-01-09T01:56:42Z</time>
      </trkpt>
      <trkpt lat="49.09292" lon="1.86393">
        <ele>138</ele>
        <time>2023-01-09T01:57:55Z</time>
      </trkpt>
      <trkpt lat="49.09267" lon="1.86428">
        <ele>138</ele>
        <time>2023-01-09T01:58:40Z</time>
      </trkpt>
      <trkpt lat="49.0925" lon="1.86465">
        <ele>139</ele>
        <time>2023-01-09T01:59:19Z</time>
      </trkpt>
      <trkpt lat="49.09228" lon="1.86489">
        <ele>138</ele>
        <time>2023-01-09T01:59:55Z</time>
      </trkpt>
      <trkpt lat="49.09221" lon="1.86532">
        <ele>137</ele>
        <time>2023-01-09T02:00:34Z</time>
      </trkpt>
      <trkpt lat="49.0919" lon="1.86585">
        <ele>134</ele>
        <time>2023-01-09T02:01:36Z</time>
      </trkpt>
      <trkpt lat="49.0919" lon="1.86603">
        <ele>133</ele>
        <time>2023-01-09T02:01:52Z</time>
      </trkpt>
      <trkpt lat="49.09211" lon="1.86641">
        <ele>134</ele>
        <time>2023-01-09T02:02:35Z</time>
      </trkpt>
      <trkpt lat="49.09228" lon="1.86657">
        <ele>135</ele>
        <time>2023-01-09T02:03:02Z</time>
      </trkpt>
      <trkpt lat="49.09239" lon="1.86649">
        <ele>136</ele>
        <time>2023-01-09T02:03:18Z</time>
      </trkpt>
      <trkpt lat="49.09244" lon="1.86653">
        <ele>136</ele>
        <time>2023-01-09T02:03:26Z</time>
      </trkpt>
      <trkpt lat="49.09253" lon="1.8668">
        <ele>135</ele>
        <time>2023-01-09T02:03:52Z</time>
      </trkpt>
      <trkpt lat="49.09264" lon="1.86687">
        <ele>135</ele>
        <time>2023-01-09T02:04:08Z</time>
      </trkpt>
      <trkpt lat="49.09288" lon="1.8672">
        <ele>133</ele>
        <time>2023-01-09T02:04:51Z</time>
      </trkpt>
      <trkpt lat="49.09308" lon="1.86736">
        <ele>133</ele>
        <time>2023-01-09T02:05:22Z</time>
      </trkpt>
      <trkpt lat="49.0932" lon="1.86755">
        <ele>132</ele>
        <time>2023-01-09T02:05:45Z</time>
      </trkpt>
      <trkpt lat="49.09327" lon="1.86788">
        <ele>128</ele>
        <time>2023-01-09T02:06:15Z</time>
      </trkpt>
      <trkpt lat="49.0933" lon="1.86783">
        <ele>129</ele>
        <time>2023-01-09T02:06:21Z</time>
      </trkpt>
      <trkpt lat="49.09335" lon="1.86785">
        <ele>128</ele>
        <time>2023-01-09T02:06:28Z</time>
      </trkpt>
      <trkpt lat="49.09347" lon="1.8681">
        <ele>124</ele>
        <time>2023-01-09T02:06:55Z</time>
      </trkpt>
      <trkpt lat="49.09358" lon="1.86798">
        <ele>123</ele>
        <time>2023-01-09T02:07:13Z</time>
      </trkpt>
      <trkpt lat="49.09365" lon="1.86802">
        <ele>121</ele>
        <time>2023-01-09T02:07:23Z</time>
      </trkpt>
      <trkpt lat="49.09365" lon="1.86798">
        <ele>121</ele>
        <time>2023-01-09T02:07:26Z</time>
      </trkpt>
      <trkpt lat="49.09362" lon="1.86823">
        <ele>120</ele>
        <time>2023-01-09T02:07:49Z</time>
      </trkpt>
      <trkpt lat="49.09353" lon="1.86832">
        <ele>121</ele>
        <time>2023-01-09T02:08:03Z</time>
      </trkpt>
      <trkpt lat="49.09366" lon="1.86862">
        <ele>116</ele>
        <time>2023-01-09T02:08:34Z</time>
      </trkpt>
      <trkpt lat="49.09403" lon="1.86915">
        <ele>106</ele>
        <time>2023-01-09T02:09:42Z</time>
      </trkpt>
      <trkpt lat="49.09407" lon="1.86942">
        <ele>104</ele>
        <time>2023-01-09T02:10:06Z</time>
      </trkpt>
      <trkpt lat="49.09385" lon="1.86995">
        <ele>101</ele>
        <time>2023-01-09T02:11:01Z</time>
      </trkpt>
      <trkpt lat="49.09352" lon="1.87174">
        <ele>96</ele>
        <time>2023-01-09T02:13:44Z</time>
      </trkpt>
      <trkpt lat="49.09348" lon="1.87182">
        <ele>96</ele>
        <time>2023-01-09T02:13:52Z</time>
      </trkpt>
      <trkpt lat="49.09333" lon="1.87194">
        <ele>97</ele>
        <time>2023-01-09T02:14:15Z</time>
      </trkpt>
      <trkpt lat="49.09326" lon="1.87217">
        <ele>97</ele>
        <time>2023-01-09T02:14:37Z</time>
      </trkpt>
      <trkpt lat="49.09318" lon="1.87262">
        <ele>96</ele>
        <time>2023-01-09T02:15:18Z</time>
      </trkpt>
      <trkpt lat="49.09306" lon="1.87448">
        <ele>96</ele>
        <time>2023-01-09T02:18:01Z</time>
      </trkpt>
      <trkpt lat="49.09292" lon="1.87531">
        <ele>95</ele>
        <time>2023-01-09T02:19:16Z</time>
      </trkpt>
      <trkpt lat="49.09252" lon="1.87639">
        <ele>94</ele>
        <time>2023-01-09T02:21:05Z</time>
      </trkpt>
      <trkpt lat="49.092" lon="1.87754">
        <ele>95</ele>
        <time>2023-01-09T02:23:07Z</time>
      </trkpt>
      <trkpt lat="49.09192" lon="1.87797">
        <ele>94</ele>
        <time>2023-01-09T02:23:46Z</time>
      </trkpt>
      <trkpt lat="49.09175" lon="1.87839">
        <ele>94</ele>
        <time>2023-01-09T02:24:29Z</time>
      </trkpt>
      <trkpt lat="49.09161" lon="1.87901">
        <ele>94</ele>
        <time>2023-01-09T02:25:26Z</time>
      </trkpt>
      <trkpt lat="49.09148" lon="1.87927">
        <ele>93</ele>
        <time>2023-01-09T02:25:55Z</time>
      </trkpt>
      <trkpt lat="49.09131" lon="1.87988">
        <ele>93</ele>
        <time>2023-01-09T02:26:53Z</time>
      </trkpt>
      <trkpt lat="49.0911" lon="1.88032">
        <ele>93</ele>
        <time>2023-01-09T02:27:40Z</time>
      </trkpt>
      <trkpt lat="49.09081" lon="1.88118">
        <ele>92</ele>
        <time>2023-01-09T02:29:05Z</time>
      </trkpt>
      <trkpt lat="49.09071" lon="1.88163">
        <ele>91</ele>
        <time>2023-01-09T02:29:46Z</time>
      </trkpt>
      <trkpt lat="49.09046" lon="1.88235">
        <ele>90</ele>
        <time>2023-01-09T02:30:58Z</time>
      </trkpt>
      <trkpt lat="49.09014" lon="1.88377">
        <ele>89</ele>
        <time>2023-01-09T02:33:09Z</time>
      </trkpt>
      <trkpt lat="49.08977" lon="1.88476">
        <ele>87</ele>
        <time>2023-01-09T02:34:48Z</time>
      </trkpt>
      <trkpt lat="49.08958" lon="1.88579">
        <ele>86</ele>
        <time>2023-01-09T02:36:22Z</time>
      </trkpt>
      <trkpt lat="49.08946" lon="1.88686">
        <ele>86</ele>
        <time>2023-01-09T02:37:57Z</time>
      </trkpt>
      <trkpt lat="49.08926" lon="1.88751">
        <ele>87</ele>
        <time>2023-01-09T02:39:00Z</time>
      </trkpt>
      <trkpt lat="49.08913" lon="1.88882">
        <ele>86</ele>
        <time>2023-01-09T02:40:55Z</time>
      </trkpt>
      <trkpt lat="49.08884" lon="1.88993">
        <ele>85</ele>
        <time>2023-01-09T02:42:40Z</time>
      </trkpt>
      <trkpt lat="49.08849" lon="1.89073">
        <ele>85</ele>
        <time>2023-01-09T02:44:04Z</time>
      </trkpt>
      <trkpt lat="49.08821" lon="1.89127">
        <ele>86</ele>
        <time>2023-01-09T02:45:04Z</time>
      </trkpt>
      <trkpt lat="49.08809" lon="1.89142">
        <ele>87</ele>
        <time>2023-01-09T02:45:25Z</time>
      </trkpt>
      <trkpt lat="49.08781" lon="1.89207">
        <ele>88</ele>
        <time>2023-01-09T02:46:33Z</time>
      </trkpt>
      <trkpt lat="49.08751" lon="1.89255">
        <ele>88</ele>
        <time>2023-01-09T02:47:31Z</time>
      </trkpt>
      <trkpt lat="49.08711" lon="1.89345">
        <ele>86</ele>
        <time>2023-01-09T02:49:06Z</time>
      </trkpt>
      <trkpt lat="49.08693" lon="1.89464">
        <ele>83</ele>
        <time>2023-01-09T02:50:53Z</time>
      </trkpt>
      <trkpt lat="49.08679" lon="1.89498">
        <ele>82</ele>
        <time>2023-01-09T02:51:28Z</time>
      </trkpt>
      <trkpt lat="49.08678" lon="1.89532">
        <ele>81</ele>
        <time>2023-01-09T02:51:57Z</time>
      </trkpt>
      <trkpt lat="49.08665" lon="1.89606">
        <ele>79</ele>
        <time>2023-01-09T02:53:04Z</time>
      </trkpt>
      <trkpt lat="49.08658" lon="1.89674">
        <ele>78</ele>
        <time>2023-01-09T02:54:04Z</time>
      </trkpt>
      <trkpt lat="49.08645" lon="1.89687">
        <ele>78</ele>
        <time>2023-01-09T02:54:25Z</time>
      </trkpt>
      <trkpt lat="49.08632" lon="1.89688">
        <ele>78</ele>
        <time>2023-01-09T02:54:43Z</time>
      </trkpt>
      <trkpt lat="49.08593" lon="1.89673">
        <ele>77</ele>
        <time>2023-01-09T02:55:36Z</time>
      </trkpt>
      <trkpt lat="49.08566" lon="1.89654">
        <ele>77</ele>
        <time>2023-01-09T02:56:16Z</time>
      </trkpt>
      <trkpt lat="49.08551" lon="1.89652">
        <ele>78</ele>
        <time>2023-01-09T02:56:36Z</time>
      </trkpt>
      <trkpt lat="49.08539" lon="1.89662">
        <ele>78</ele>
        <time>2023-01-09T02:56:54Z</time>
      </trkpt>
      <trkpt lat="49.08532" lon="1.89674">
        <ele>78</ele>
        <time>2023-01-09T02:57:08Z</time>
      </trkpt>
      <trkpt lat="49.08508" lon="1.89752">
        <ele>77</ele>
        <time>2023-01-09T02:58:24Z</time>
      </trkpt>
      <trkpt lat="49.08494" lon="1.89774">
        <ele>77</ele>
        <time>2023-01-09T02:58:50Z</time>
      </trkpt>
      <trkpt lat="49.08478" lon="1.89774">
        <ele>77</ele>
        <time>2023-01-09T02:59:12Z</time>
      </trkpt>
      <trkpt lat="49.08438" lon="1.89755">
        <ele>77</ele>
        <time>2023-01-09T03:00:08Z</time>
      </trkpt>
      <trkpt lat="49.08422" lon="1.89765">
        <ele>76</ele>
        <time>2023-01-09T03:00:31Z</time>
      </trkpt>
      <trkpt lat="49.0842" lon="1.89785">
        <ele>76</ele>
        <time>2023-01-09T03:00:48Z</time>
      </trkpt>
      <trkpt lat="49.08407" lon="1.89817">
        <ele>75</ele>
        <time>2023-01-09T03:01:21Z</time>
      </trkpt>
      <trkpt lat="49.084" lon="1.89892">
        <ele>74</ele>
        <time>2023-01-09T03:02:28Z</time>
      </trkpt>
      <trkpt lat="49.08392" lon="1.89935">
        <ele>74</ele>
        <time>2023-01-09T03:03:07Z</time>
      </trkpt>
      <trkpt lat="49.08373" lon="1.89993">
        <ele>74</ele>
        <time>2023-01-09T03:04:03Z</time>
      </trkpt>
      <trkpt lat="49.08366" lon="1.90044">
        <ele>74</ele>
        <time>2023-01-09T03:04:49Z</time>
      </trkpt>
      <trkpt lat="49.08351" lon="1.90077">
        <ele>75</ele>
        <time>2023-01-09T03:05:24Z</time>
      </trkpt>
      <trkpt lat="49.08336" lon="1.90139">
        <ele>74</ele>
        <time>2023-01-09T03:06:22Z</time>
      </trkpt>
      <trkpt lat="49.08321" lon="1.90178">
        <ele>74</ele>
        <time>2023-01-09T03:07:01Z</time>
      </trkpt>
      <trkpt lat="49.08298" lon="1.90281">
        <ele>75</ele>
        <time>2023-01-09T03:08:36Z</time>
      </trkpt>
      <trkpt lat="49.08259" lon="1.90402">
        <ele>74</ele>
        <time>2023-01-09T03:10:34Z</time>
      </trkpt>
      <trkpt lat="49.08182" lon="1.90684">
        <ele>73</ele>
        <time>2023-01-09T03:15:01Z</time>
      </trkpt>
      <trkpt lat="49.08152" lon="1.90754">
        <ele>73</ele>
        <time>2023-01-09T03:16:14Z</time>
      </trkpt>
      <trkpt lat="49.08122" lon="1.90843">
        <ele>72</ele>
        <time>2023-01-09T03:17:42Z</time>
      </trkpt>
      <trkpt lat="49.08095" lon="1.90904">
        <ele>71</ele>
        <time>2023-01-09T03:18:46Z</time>
      </trkpt>
      <trkpt lat="49.08056" lon="1.90987">
        <ele>70</ele>
        <time>2023-01-09T03:20:16Z</time>
      </trkpt>
      <trkpt lat="49.08018" lon="1.91053">
        <ele>69</ele>
        <time>2023-01-09T03:21:32Z</time>
      </trkpt>
      <trkpt lat="49.07963" lon="1.91128">
        <ele>69</ele>
        <time>2023-01-09T03:23:11Z</time>
      </trkpt>
      <trkpt lat="49.07846" lon="1.91245">
        <ele>68</ele>
        <time>2023-01-09T03:26:17Z</time>
      </trkpt>
      <trkpt lat="49.07739" lon="1.91327">
        <ele>67</ele>
        <time>2023-01-09T03:28:57Z</time>
      </trkpt>
      <trkpt lat="49.07699" lon="1.9138">
        <ele>68</ele>
        <time>2023-01-09T03:30:08Z</time>
      </trkpt>
      <trkpt lat="49.0767" lon="1.91434">
        <ele>68</ele>
        <time>2023-01-09T03:31:09Z</time>
      </trkpt>
      <trkpt lat="49.0756" lon="1.91771">
        <ele>72</ele>
        <time>2023-01-09T03:36:38Z</time>
      </trkpt>
      <trkpt lat="49.07499" lon="1.91915">
        <ele>75</ele>
        <time>2023-01-09T03:39:08Z</time>
      </trkpt>
      <trkpt lat="49.07458" lon="1.92101">
        <ele>81</ele>
        <time>2023-01-09T03:41:59Z</time>
      </trkpt>
      <trkpt lat="49.07422" lon="1.92215">
        <ele>77</ele>
        <time>2023-01-09T03:43:50Z</time>
      </trkpt>
      <trkpt lat="49.07411" lon="1.92287">
        <ele>76</ele>
        <time>2023-01-09T03:44:55Z</time>
      </trkpt>
      <trkpt lat="49.07412" lon="1.92303">
        <ele>76</ele>
        <time>2023-01-09T03:45:09Z</time>
      </trkpt>
      <trkpt lat="49.07392" lon="1.92384">
        <ele>75</ele>
        <time>2023-01-09T03:46:24Z</time>
      </trkpt>
      <trkpt lat="49.07387" lon="1.92433">
        <ele>75</ele>
        <time>2023-01-09T03:47:08Z</time>
      </trkpt>
      <trkpt lat="49.07378" lon="1.92471">
        <ele>74</ele>
        <time>2023-01-09T03:47:43Z</time>
      </trkpt>
      <trkpt lat="49.07356" lon="1.92525">
        <ele>71</ele>
        <time>2023-01-09T03:48:39Z</time>
      </trkpt>
      <trkpt lat="49.07353" lon="1.92539">
        <ele>70</ele>
        <time>2023-01-09T03:48:52Z</time>
      </trkpt>
      <trkpt lat="49.07355" lon="1.92558">
        <ele>70</ele>
        <time>2023-01-09T03:49:08Z</time>
      </trkpt>
    </trkseg>
  </trk>
</gpx>